sensor_id;sensor_type;location;lat;lon;timestamp;pressure;altitude;pressure_sealevel;temperature;humidity
57114;BME280;42994;51.606;9.988;2023-02-18T00:00:56;99457.34;;;6.29;100.00
57114;BME280;42994;51.606;9.988;2023-02-18T00:03:25;99451.72;;;6.32;100.00
57114;BME280;42994;51.606;9.988;2023-02-18T00:05:52;99455.13;;;6.43;100.00
57114;BME280;42994;51.606;9.988;2023-02-18T00:08:20;99455.81;;;6.45;100.00
57114;BME280;42994;51.606;9.988;2023-02-18T00:10:48;99452.63;;;6.41;100.00
57114;BME280;42994;51.606;9.988;2023-02-18T00:13:21;99457.97;;;6.41;100.00
57114;BME280;42994;51.606;9.988;2023-02-18T00:15:47;99456.25;;;6.40;100.00
57114;BME280;42994;51.606;9.988;2023-02-18T00:18:17;99449.13;;;6.41;100.00
57114;BME280;42994;51.606;9.988;2023-02-18T00:20:44;99451.09;;;6.39;100.00
57114;BME280;42994;51.606;9.988;2023-02-18T00:23:10;99445.09;;;6.37;100.00
57114;BME280;42994;51.606;9.988;2023-02-18T00:25:39;99443.28;;;6.37;100.00
57114;BME280;42994;51.606;9.988;2023-02-18T00:28:05;99442.75;;;6.33;100.00
57114;BME280;42994;51.606;9.988;2023-02-18T00:30:32;99441.38;;;6.29;100.00
57114;BME280;42994;51.606;9.988;2023-02-18T00:32:59;99439.19;;;6.25;100.00
57114;BME280;42994;51.606;9.988;2023-02-18T00:35:26;99440.16;;;6.24;100.00
57114;BME280;42994;51.606;9.988;2023-02-18T00:37:52;99439.19;;;6.25;100.00
57114;BME280;42994;51.606;9.988;2023-02-18T00:40:19;99437.03;;;6.28;100.00
57114;BME280;42994;51.606;9.988;2023-02-18T00:42:47;99434.06;;;6.31;100.00
57114;BME280;42994;51.606;9.988;2023-02-18T00:45:14;99433.75;;;6.34;100.00
57114;BME280;42994;51.606;9.988;2023-02-18T00:47:41;99430.41;;;6.32;100.00
57114;BME280;42994;51.606;9.988;2023-02-18T00:50:08;99430.28;;;6.34;100.00
57114;BME280;42994;51.606;9.988;2023-02-18T00:52:36;99424.25;;;6.32;100.00
57114;BME280;42994;51.606;9.988;2023-02-18T00:55:03;99419.78;;;6.32;100.00
57114;BME280;42994;51.606;9.988;2023-02-18T00:57:29;99419.78;;;6.32;100.00
57114;BME280;42994;51.606;9.988;2023-02-18T00:59:57;99428.59;;;6.33;100.00
57114;BME280;42994;51.606;9.988;2023-02-18T01:02:24;99431.41;;;6.31;100.00
57114;BME280;42994;51.606;9.988;2023-02-18T01:04:51;99415.94;;;6.35;100.00
57114;BME280;42994;51.606;9.988;2023-02-18T01:07:18;99418.94;;;6.32;100.00
57114;BME280;42994;51.606;9.988;2023-02-18T01:09:44;99418.03;;;6.23;100.00
57114;BME280;42994;51.606;9.988;2023-02-18T01:12:12;99413.53;;;6.24;100.00
57114;BME280;42994;51.606;9.988;2023-02-18T01:14:39;99414.84;;;6.20;100.00
57114;BME280;42994;51.606;9.988;2023-02-18T01:17:07;99404.50;;;6.16;100.00
57114;BME280;42994;51.606;9.988;2023-02-18T01:19:34;99400.63;;;6.11;100.00
57114;BME280;42994;51.606;9.988;2023-02-18T01:22:00;99399.50;;;6.13;100.00
57114;BME280;42994;51.606;9.988;2023-02-18T01:24:27;99409.66;;;6.18;100.00
57114;BME280;42994;51.606;9.988;2023-02-18T01:26:54;99410.47;;;6.37;100.00
57114;BME280;42994;51.606;9.988;2023-02-18T01:29:21;99403.66;;;6.34;100.00
57114;BME280;42994;51.606;9.988;2023-02-18T01:31:48;99409.69;;;6.44;100.00
57114;BME280;42994;51.606;9.988;2023-02-18T01:34:16;99404.03;;;6.39;100.00
57114;BME280;42994;51.606;9.988;2023-02-18T01:36:42;99411.38;;;6.45;100.00
57114;BME280;42994;51.606;9.988;2023-02-18T01:39:09;99415.03;;;6.44;100.00
57114;BME280;42994;51.606;9.988;2023-02-18T01:41:36;99419.97;;;6.57;100.00
57114;BME280;42994;51.606;9.988;2023-02-18T01:44:17;99418.72;;;6.51;100.00
57114;BME280;42994;51.606;9.988;2023-02-18T01:46:44;99415.53;;;6.48;100.00
57114;BME280;42994;51.606;9.988;2023-02-18T01:49:16;99408.03;;;6.43;100.00
57114;BME280;42994;51.606;9.988;2023-02-18T01:51:47;99401.22;;;6.41;100.00
57114;BME280;42994;51.606;9.988;2023-02-18T01:54:18;99398.06;;;6.45;100.00
57114;BME280;42994;51.606;9.988;2023-02-18T01:56:50;99396.44;;;6.52;100.00
57114;BME280;42994;51.606;9.988;2023-02-18T01:59:22;99392.44;;;6.48;100.00
57114;BME280;42994;51.606;9.988;2023-02-18T02:01:49;99384.59;;;6.47;100.00
57114;BME280;42994;51.606;9.988;2023-02-18T02:04:17;99394.94;;;6.50;100.00
57114;BME280;42994;51.606;9.988;2023-02-18T02:06:45;99379.13;;;6.48;100.00
57114;BME280;42994;51.606;9.988;2023-02-18T02:09:15;99371.13;;;6.48;100.00
57114;BME280;42994;51.606;9.988;2023-02-18T02:15:02;99345.31;;;6.49;100.00
57114;BME280;42994;51.606;9.988;2023-02-18T02:17:36;99351.03;;;6.54;100.00
57114;BME280;42994;51.606;9.988;2023-02-18T02:23:11;99350.97;;;6.72;100.00
57114;BME280;42994;51.606;9.988;2023-02-18T02:26:09;99333.94;;;6.65;100.00
57114;BME280;42994;51.606;9.988;2023-02-18T02:28:56;99340.09;;;6.65;100.00
57114;BME280;42994;51.606;9.988;2023-02-18T02:34:38;99328.47;;;6.74;100.00
57114;BME280;42994;51.606;9.988;2023-02-18T02:37:14;99321.31;;;6.75;100.00
57114;BME280;42994;51.606;9.988;2023-02-18T02:39:50;99307.00;;;6.76;100.00
57114;BME280;42994;51.606;9.988;2023-02-18T02:42:25;99301.84;;;6.74;100.00
57114;BME280;42994;51.606;9.988;2023-02-18T02:45:00;99299.84;;;6.77;100.00
57114;BME280;42994;51.606;9.988;2023-02-18T02:47:33;99295.69;;;6.74;100.00
57114;BME280;42994;51.606;9.988;2023-02-18T02:50:07;99293.25;;;6.89;100.00
57114;BME280;42994;51.606;9.988;2023-02-18T02:52:39;99284.38;;;6.80;100.00
57114;BME280;42994;51.606;9.988;2023-02-18T02:55:08;99285.84;;;6.74;100.00
57114;BME280;42994;51.606;9.988;2023-02-18T02:57:44;99288.06;;;6.79;100.00
57114;BME280;42994;51.606;9.988;2023-02-18T03:00:17;99273.91;;;6.87;100.00
57114;BME280;42994;51.606;9.988;2023-02-18T03:03:02;99277.25;;;6.89;100.00
57114;BME280;42994;51.606;9.988;2023-02-18T03:05:48;99278.94;;;6.90;100.00
57114;BME280;42994;51.606;9.988;2023-02-18T03:08:36;99275.63;;;6.96;100.00
57114;BME280;42994;51.606;9.988;2023-02-18T03:11:06;99262.94;;;6.90;100.00
57114;BME280;42994;51.606;9.988;2023-02-18T03:13:54;99268.28;;;6.90;100.00
57114;BME280;42994;51.606;9.988;2023-02-18T03:16:32;99262.75;;;6.91;100.00
57114;BME280;42994;51.606;9.988;2023-02-18T03:19:07;99268.28;;;6.90;100.00
57114;BME280;42994;51.606;9.988;2023-02-18T03:21:40;99255.13;;;6.88;100.00
57114;BME280;42994;51.606;9.988;2023-02-18T03:24:14;99260.28;;;6.90;100.00
57114;BME280;42994;51.606;9.988;2023-02-18T03:26:46;99249.94;;;6.95;100.00
57114;BME280;42994;51.606;9.988;2023-02-18T03:29:14;99250.28;;;6.92;100.00
57114;BME280;42994;51.606;9.988;2023-02-18T03:31:46;99241.94;;;6.95;100.00
57114;BME280;42994;51.606;9.988;2023-02-18T03:34:16;99232.31;;;6.94;100.00
57114;BME280;42994;51.606;9.988;2023-02-18T03:36:46;99232.16;;;7.04;100.00
57114;BME280;42994;51.606;9.988;2023-02-18T03:39:18;99221.81;;;7.01;100.00
57114;BME280;42994;51.606;9.988;2023-02-18T03:41:46;99223.66;;;6.92;100.00
57114;BME280;42994;51.606;9.988;2023-02-18T03:44:13;99213.97;;;6.91;100.00
57114;BME280;42994;51.606;9.988;2023-02-18T03:46:41;99213.81;;;6.92;100.00
57114;BME280;42994;51.606;9.988;2023-02-18T03:49:10;99215.34;;;7.03;100.00
57114;BME280;42994;51.606;9.988;2023-02-18T03:51:39;99200.84;;;6.98;100.00
57114;BME280;42994;51.606;9.988;2023-02-18T03:54:07;99198.31;;;6.96;100.00
57114;BME280;42994;51.606;9.988;2023-02-18T03:56:35;99195.50;;;6.98;100.00
57114;BME280;42994;51.606;9.988;2023-02-18T03:59:02;99194.84;;;6.96;100.00
57114;BME280;42994;51.606;9.988;2023-02-18T04:01:29;99183.47;;;6.93;100.00
57114;BME280;42994;51.606;9.988;2023-02-18T04:03:56;99174.34;;;6.96;100.00
57114;BME280;42994;51.606;9.988;2023-02-18T04:06:23;99169.34;;;6.93;100.00
57114;BME280;42994;51.606;9.988;2023-02-18T04:08:50;99164.66;;;6.95;100.00
57114;BME280;42994;51.606;9.988;2023-02-18T04:11:18;99163.03;;;6.94;100.00
57114;BME280;42994;51.606;9.988;2023-02-18T04:13:45;99162.34;;;6.92;100.00
57114;BME280;42994;51.606;9.988;2023-02-18T04:16:12;99158.00;;;6.91;100.00
57114;BME280;42994;51.606;9.988;2023-02-18T04:18:39;99156.00;;;6.93;100.00
57114;BME280;42994;51.606;9.988;2023-02-18T04:21:05;99149.34;;;6.89;100.00
57114;BME280;42994;51.606;9.988;2023-02-18T04:23:32;99147.34;;;6.91;100.00
57114;BME280;42994;51.606;9.988;2023-02-18T04:25:59;99138.38;;;6.92;100.00
57114;BME280;42994;51.606;9.988;2023-02-18T04:28:27;99141.03;;;6.92;100.00
57114;BME280;42994;51.606;9.988;2023-02-18T04:30:54;99136.38;;;6.94;100.00
57114;BME280;42994;51.606;9.988;2023-02-18T04:33:20;99133.69;;;6.94;100.00
57114;BME280;42994;51.606;9.988;2023-02-18T04:35:47;99141.69;;;6.94;100.00
57114;BME280;42994;51.606;9.988;2023-02-18T04:38:14;99136.72;;;6.99;100.00
57114;BME280;42994;51.606;9.988;2023-02-18T04:40:41;99131.69;;;7.04;100.00
57114;BME280;42994;51.606;9.988;2023-02-18T04:43:08;99123.88;;;7.03;100.00
57114;BME280;42994;51.606;9.988;2023-02-18T04:45:36;99115.69;;;7.04;100.00
57114;BME280;42994;51.606;9.988;2023-02-18T04:48:03;99111.72;;;7.08;100.00
57114;BME280;42994;51.606;9.988;2023-02-18T04:50:30;99108.41;;;7.06;100.00
57114;BME280;42994;51.606;9.988;2023-02-18T04:52:57;99105.41;;;7.01;100.00
57114;BME280;42994;51.606;9.988;2023-02-18T04:55:23;99096.03;;;7.13;100.00
57114;BME280;42994;51.606;9.988;2023-02-18T04:57:50;99090.91;;;7.12;100.00
57114;BME280;42994;51.606;9.988;2023-02-18T05:00:18;99078.41;;;7.12;100.00
57114;BME280;42994;51.606;9.988;2023-02-18T05:02:47;99081.38;;;7.09;100.00
57114;BME280;42994;51.606;9.988;2023-02-18T05:05:13;99081.91;;;7.21;100.00
57114;BME280;42994;51.606;9.988;2023-02-18T05:07:40;99084.56;;;7.21;100.00
57114;BME280;42994;51.606;9.988;2023-02-18T05:10:08;99072.38;;;7.19;100.00
57114;BME280;42994;51.606;9.988;2023-02-18T05:12:35;99065.38;;;7.26;100.00
57114;BME280;42994;51.606;9.988;2023-02-18T05:15:02;99060.69;;;7.28;100.00
57114;BME280;42994;51.606;9.988;2023-02-18T05:17:29;99043.06;;;7.27;100.00
57114;BME280;42994;51.606;9.988;2023-02-18T05:19:57;99056.38;;;7.27;100.00
57114;BME280;42994;51.606;9.988;2023-02-18T05:22:23;99042.91;;;7.28;100.00
57114;BME280;42994;51.606;9.988;2023-02-18T05:24:50;99031.69;;;7.33;100.00
57114;BME280;42994;51.606;9.988;2023-02-18T05:27:20;99038.34;;;7.45;100.00
57114;BME280;42994;51.606;9.988;2023-02-18T05:29:46;99028.84;;;7.43;100.00
57114;BME280;42994;51.606;9.988;2023-02-18T05:32:13;99024.69;;;7.48;100.00
57114;BME280;42994;51.606;9.988;2023-02-18T05:34:40;99018.00;;;7.44;100.00
57114;BME280;42994;51.606;9.988;2023-02-18T05:37:08;99019.53;;;7.39;100.00
57114;BME280;42994;51.606;9.988;2023-02-18T05:39:35;99019.69;;;7.37;100.00
57114;BME280;42994;51.606;9.988;2023-02-18T05:42:01;99015.03;;;7.39;100.00
57114;BME280;42994;51.606;9.988;2023-02-18T05:44:28;99007.38;;;7.36;100.00
57114;BME280;42994;51.606;9.988;2023-02-18T05:46:59;98999.69;;;7.41;100.00
57114;BME280;42994;51.606;9.988;2023-02-18T05:49:26;99010.16;;;7.43;100.00
57114;BME280;42994;51.606;9.988;2023-02-18T05:51:53;98998.19;;;7.47;100.00
57114;BME280;42994;51.606;9.988;2023-02-18T05:54:21;99008.19;;;7.45;100.00
57114;BME280;42994;51.606;9.988;2023-02-18T05:56:48;99012.38;;;7.39;100.00
57114;BME280;42994;51.606;9.988;2023-02-18T05:59:15;99008.03;;;7.38;100.00
57114;BME280;42994;51.606;9.988;2023-02-18T06:01:42;98999.03;;;7.39;100.00
57114;BME280;42994;51.606;9.988;2023-02-18T06:04:09;98996.00;;;7.50;100.00
57114;BME280;42994;51.606;9.988;2023-02-18T06:06:36;98986.31;;;7.58;100.00
57114;BME280;42994;51.606;9.988;2023-02-18T06:09:03;98987.78;;;7.60;100.00
57114;BME280;42994;51.606;9.988;2023-02-18T06:11:32;98989.31;;;7.55;100.00
57114;BME280;42994;51.606;9.988;2023-02-18T06:13:59;98991.81;;;7.56;100.00
57114;BME280;42994;51.606;9.988;2023-02-18T06:16:26;98982.28;;;7.54;100.00
57114;BME280;42994;51.606;9.988;2023-02-18T06:18:54;98988.59;;;7.61;100.00
57114;BME280;42994;51.606;9.988;2023-02-18T06:21:20;98978.09;;;7.67;100.00
57114;BME280;42994;51.606;9.988;2023-02-18T06:23:47;98979.22;;;7.73;100.00
57114;BME280;42994;51.606;9.988;2023-02-18T06:26:14;98978.91;;;7.68;100.00
57114;BME280;42994;51.606;9.988;2023-02-18T06:28:42;98976.56;;;7.73;100.00
57114;BME280;42994;51.606;9.988;2023-02-18T06:31:15;98975.91;;;7.71;100.00
57114;BME280;42994;51.606;9.988;2023-02-18T06:33:59;98968.88;;;7.70;100.00
57114;BME280;42994;51.606;9.988;2023-02-18T06:36:26;98956.69;;;7.76;100.00
57114;BME280;42994;51.606;9.988;2023-02-18T06:38:52;98949.25;;;7.63;100.00
57114;BME280;42994;51.606;9.988;2023-02-18T06:41:21;98947.91;;;7.67;100.00
57114;BME280;42994;51.606;9.988;2023-02-18T06:43:50;98933.44;;;7.61;100.00
57114;BME280;42994;51.606;9.988;2023-02-18T06:46:16;98928.28;;;7.60;100.00
57114;BME280;42994;51.606;9.988;2023-02-18T06:48:43;98929.91;;;7.61;100.00
57114;BME280;42994;51.606;9.988;2023-02-18T06:51:10;98943.56;;;7.66;100.00
57114;BME280;42994;51.606;9.988;2023-02-18T06:53:36;98926.44;;;7.60;100.00
57114;BME280;42994;51.606;9.988;2023-02-18T06:56:04;98922.28;;;7.58;100.00
57114;BME280;42994;51.606;9.988;2023-02-18T06:58:30;98922.94;;;7.60;100.00
57114;BME280;42994;51.606;9.988;2023-02-18T07:00:59;98926.75;;;7.57;100.00
57114;BME280;42994;51.606;9.988;2023-02-18T07:03:26;98917.22;;;7.63;100.00
57114;BME280;42994;51.606;9.988;2023-02-18T07:05:52;98914.75;;;7.61;100.00
57114;BME280;42994;51.606;9.988;2023-02-18T07:08:19;98911.63;;;7.58;100.00
57114;BME280;42994;51.606;9.988;2023-02-18T07:10:48;98902.91;;;7.64;100.00
57114;BME280;42994;51.606;9.988;2023-02-18T07:13:15;98894.19;;;7.70;100.00
57114;BME280;42994;51.606;9.988;2023-02-18T07:15:42;98887.53;;;7.66;100.00
57114;BME280;42994;51.606;9.988;2023-02-18T07:18:10;98883.22;;;7.65;100.00
57114;BME280;42994;51.606;9.988;2023-02-18T07:20:37;98885.22;;;7.63;100.00
57114;BME280;42994;51.606;9.988;2023-02-18T07:23:04;98867.88;;;7.67;100.00
57114;BME280;42994;51.606;9.988;2023-02-18T07:25:30;98878.00;;;7.72;100.00
57114;BME280;42994;51.606;9.988;2023-02-18T07:27:57;98878.19;;;7.70;100.00
57114;BME280;42994;51.606;9.988;2023-02-18T07:30:24;98879.38;;;7.67;100.00
57114;BME280;42994;51.606;9.988;2023-02-18T07:32:50;98886.31;;;7.77;100.00
57114;BME280;42994;51.606;9.988;2023-02-18T07:35:18;98884.84;;;7.74;100.00
57114;BME280;42994;51.606;9.988;2023-02-18T07:37:46;98873.84;;;7.69;100.00
57114;BME280;42994;51.606;9.988;2023-02-18T07:40:16;98867.50;;;7.70;100.00
57114;BME280;42994;51.606;9.988;2023-02-18T07:42:44;98874.69;;;7.69;100.00
57114;BME280;42994;51.606;9.988;2023-02-18T07:45:11;98876.47;;;7.77;100.00
57114;BME280;42994;51.606;9.988;2023-02-18T07:47:37;98863.13;;;7.77;100.00
57114;BME280;42994;51.606;9.988;2023-02-18T07:50:07;98848.63;;;7.80;100.00
57114;BME280;42994;51.606;9.988;2023-02-18T07:52:35;98851.81;;;7.75;100.00
57114;BME280;42994;51.606;9.988;2023-02-18T07:55:02;98849.78;;;7.77;100.00
57114;BME280;42994;51.606;9.988;2023-02-18T07:57:29;98853.78;;;7.81;100.00
57114;BME280;42994;51.606;9.988;2023-02-18T07:59:56;98843.03;;;7.89;100.00
57114;BME280;42994;51.606;9.988;2023-02-18T08:02:23;98845.03;;;7.87;100.00
57114;BME280;42994;51.606;9.988;2023-02-18T08:04:50;98843.75;;;7.83;100.00
57114;BME280;42994;51.606;9.988;2023-02-18T08:07:18;98840.34;;;7.89;100.00
57114;BME280;42994;51.606;9.988;2023-02-18T08:09:47;98837.38;;;7.84;100.00
57114;BME280;42994;51.606;9.988;2023-02-18T08:12:15;98839.72;;;7.87;100.00
57114;BME280;42994;51.606;9.988;2023-02-18T08:14:41;98845.19;;;7.94;100.00
57114;BME280;42994;51.606;9.988;2023-02-18T08:17:08;98832.34;;;7.89;100.00
57114;BME280;42994;51.606;9.988;2023-02-18T08:19:35;98834.50;;;7.94;100.00
57114;BME280;42994;51.606;9.988;2023-02-18T08:22:02;98832.34;;;7.89;100.00
57114;BME280;42994;51.606;9.988;2023-02-18T08:24:29;98818.00;;;7.91;100.00
57114;BME280;42994;51.606;9.988;2023-02-18T08:26:57;98820.94;;;7.96;100.00
57114;BME280;42994;51.606;9.988;2023-02-18T08:29:24;98826.28;;;7.96;100.00
57114;BME280;42994;51.606;9.988;2023-02-18T08:31:51;98833.25;;;8.05;100.00
57114;BME280;42994;51.606;9.988;2023-02-18T08:34:19;98824.94;;;8.00;100.00
57114;BME280;42994;51.606;9.988;2023-02-18T08:36:46;98824.16;;;8.14;100.00
57114;BME280;42994;51.606;9.988;2023-02-18T08:39:13;98827.53;;;8.08;100.00
57114;BME280;42994;51.606;9.988;2023-02-18T08:41:47;98816.66;;;8.09;100.00
57114;BME280;42994;51.606;9.988;2023-02-18T08:44:15;98811.34;;;8.09;100.00
57114;BME280;42994;51.606;9.988;2023-02-18T08:46:41;98813.00;;;8.11;100.00
57114;BME280;42994;51.606;9.988;2023-02-18T08:49:08;98817.88;;;8.07;100.00
57114;BME280;42994;51.606;9.988;2023-02-18T08:51:35;98809.66;;;8.08;100.00
57114;BME280;42994;51.606;9.988;2023-02-18T08:54:01;98812.34;;;8.08;100.00
57114;BME280;42994;51.606;9.988;2023-02-18T08:56:28;98803.31;;;8.09;100.00
57114;BME280;42994;51.606;9.988;2023-02-18T08:58:55;98810.13;;;8.12;100.00
57114;BME280;42994;51.606;9.988;2023-02-18T09:01:25;98795.31;;;8.09;100.00
57114;BME280;42994;51.606;9.988;2023-02-18T09:03:52;98792.19;;;8.06;100.00
57114;BME280;42994;51.606;9.988;2023-02-18T09:06:18;98803.16;;;8.11;100.00
57114;BME280;42994;51.606;9.988;2023-02-18T09:08:46;98795.31;;;8.09;100.00
57114;BME280;42994;51.606;9.988;2023-02-18T09:11:13;98797.25;;;8.16;100.00
57114;BME280;42994;51.606;9.988;2023-02-18T09:13:40;98794.13;;;8.12;100.00
57114;BME280;42994;51.606;9.988;2023-02-18T09:16:09;98798.28;;;8.15;100.00
57114;BME280;42994;51.606;9.988;2023-02-18T09:21:15;98789.25;;;8.16;100.00
57114;BME280;42994;51.606;9.988;2023-02-18T09:23:45;98799.91;;;8.16;100.00
57114;BME280;42994;51.606;9.988;2023-02-18T09:26:15;98783.53;;;8.19;100.00
57114;BME280;42994;51.606;9.988;2023-02-18T09:28:42;98783.72;;;8.17;100.00
57114;BME280;42994;51.606;9.988;2023-02-18T09:31:11;98782.38;;;8.21;100.00
57114;BME280;42994;51.606;9.988;2023-02-18T09:33:47;98771.88;;;8.20;100.00
57114;BME280;42994;51.606;9.988;2023-02-18T09:36:15;98770.84;;;8.21;100.00
57114;BME280;42994;51.606;9.988;2023-02-18T09:38:42;98779.22;;;8.18;100.00
57114;BME280;42994;51.606;9.988;2023-02-18T09:41:14;98778.31;;;8.25;100.00
57114;BME280;42994;51.606;9.988;2023-02-18T09:43:45;98772.97;;;8.25;100.00
57114;BME280;42994;51.606;9.988;2023-02-18T09:46:18;98774.34;;;8.21;100.00
57114;BME280;42994;51.606;9.988;2023-02-18T09:48:47;98780.34;;;8.23;100.00
57114;BME280;42994;51.606;9.988;2023-02-18T09:51:15;98767.00;;;8.23;100.00
57114;BME280;42994;51.606;9.988;2023-02-18T09:53:42;98775.19;;;8.22;100.00
57114;BME280;42994;51.606;9.988;2023-02-18T09:56:11;98775.00;;;8.23;100.00
57114;BME280;42994;51.606;9.988;2023-02-18T09:58:40;98764.97;;;8.25;100.00
57114;BME280;42994;51.606;9.988;2023-02-18T10:01:14;98764.59;;;8.28;100.00
57114;BME280;42994;51.606;9.988;2023-02-18T10:03:43;98761.56;;;8.32;100.00
57114;BME280;42994;51.606;9.988;2023-02-18T10:06:15;98746.28;;;8.25;100.00
57114;BME280;42994;51.606;9.988;2023-02-18T10:08:45;98752.44;;;8.26;100.00
57114;BME280;42994;51.606;9.988;2023-02-18T10:11:14;98753.06;;;8.28;100.00
57114;BME280;42994;51.606;9.988;2023-02-18T10:13:42;98748.09;;;8.25;100.00
57114;BME280;42994;51.606;9.988;2023-02-18T10:16:15;98747.75;;;8.28;100.00
57114;BME280;42994;51.606;9.988;2023-02-18T10:18:44;98749.59;;;8.27;100.00
57114;BME280;42994;51.606;9.988;2023-02-18T10:21:18;98758.59;;;8.26;100.00
57114;BME280;42994;51.606;9.988;2023-02-18T10:23:56;98759.44;;;8.27;100.00
57114;BME280;42994;51.606;9.988;2023-02-18T10:26:24;98753.91;;;8.28;100.00
57114;BME280;42994;51.606;9.988;2023-02-18T10:28:51;98745.88;;;8.28;100.00
57114;BME280;42994;51.606;9.988;2023-02-18T10:31:22;98752.25;;;8.27;100.00
57114;BME280;42994;51.606;9.988;2023-02-18T10:33:58;98740.53;;;8.28;100.00
57114;BME280;42994;51.606;9.988;2023-02-18T10:36:34;98740.75;;;8.27;100.00
57114;BME280;42994;51.606;9.988;2023-02-18T10:39:13;98738.09;;;8.27;100.00
57114;BME280;42994;51.606;9.988;2023-02-18T10:41:48;98751.44;;;8.27;100.00
57114;BME280;42994;51.606;9.988;2023-02-18T10:44:20;98750.06;;;8.31;100.00
57114;BME280;42994;51.606;9.988;2023-02-18T10:46:59;98760.38;;;8.34;100.00
57114;BME280;42994;51.606;9.988;2023-02-18T10:49:51;98744.59;;;8.39;100.00
57114;BME280;42994;51.606;9.988;2023-02-18T10:52:24;98749.75;;;8.41;100.00
57114;BME280;42994;51.606;9.988;2023-02-18T10:54:58;98744.81;;;8.38;100.00
57114;BME280;42994;51.606;9.988;2023-02-18T10:57:25;98739.09;;;8.41;100.00
57114;BME280;42994;51.606;9.988;2023-02-18T10:59:54;98728.78;;;8.38;100.00
57114;BME280;42994;51.606;9.988;2023-02-18T11:02:25;98731.56;;;8.44;100.00
57114;BME280;42994;51.606;9.988;2023-02-18T11:04:54;98735.78;;;8.39;100.00
57114;BME280;42994;51.606;9.988;2023-02-18T11:07:26;98748.88;;;8.49;100.00
57114;BME280;42994;51.606;9.988;2023-02-18T11:09:56;98764.53;;;8.52;100.00
57114;BME280;42994;51.606;9.988;2023-02-18T11:12:28;98757.72;;;8.49;100.00
57114;BME280;42994;51.606;9.988;2023-02-18T11:15:15;98756.97;;;8.55;100.00
57114;BME280;42994;51.606;9.988;2023-02-18T11:17:44;98754.50;;;8.54;100.00
57114;BME280;42994;51.606;9.988;2023-02-18T11:20:28;98704.13;;;8.51;100.00
57114;BME280;42994;51.606;9.988;2023-02-18T11:23:13;98737.19;;;8.50;100.00
57114;BME280;42994;51.606;9.988;2023-02-18T11:25:58;98765.47;;;8.59;100.00
57114;BME280;42994;51.606;9.988;2023-02-18T11:28:30;98760.47;;;8.56;100.00
57114;BME280;42994;51.606;9.988;2023-02-18T11:31:01;98767.22;;;8.52;100.00
57114;BME280;42994;51.606;9.988;2023-02-18T11:33:32;98770.06;;;8.50;100.00
57114;BME280;42994;51.606;9.988;2023-02-18T11:36:04;98784.44;;;8.49;100.00
57114;BME280;42994;51.606;9.988;2023-02-18T11:38:36;98778.47;;;8.47;100.00
57114;BME280;42994;51.606;9.988;2023-02-18T11:41:07;98791.16;;;8.45;100.00
57114;BME280;42994;51.606;9.988;2023-02-18T11:43:35;98783.13;;;8.45;100.00
57114;BME280;42994;51.606;9.988;2023-02-18T11:46:09;98781.66;;;8.42;100.00
57114;BME280;42994;51.606;9.988;2023-02-18T11:48:37;98774.84;;;8.40;100.00
57114;BME280;42994;51.606;9.988;2023-02-18T11:51:04;98777.22;;;8.35;100.00
57114;BME280;42994;51.606;9.988;2023-02-18T11:53:35;98778.59;;;8.31;100.00
57114;BME280;42994;51.606;9.988;2023-02-18T11:56:05;98774.78;;;8.25;100.00
57114;BME280;42994;51.606;9.988;2023-02-18T11:58:37;98775.34;;;8.20;100.00
57114;BME280;42994;51.606;9.988;2023-02-18T12:01:09;98783.53;;;8.19;100.00
57114;BME280;42994;51.606;9.988;2023-02-18T12:03:43;98790.75;;;8.18;100.00
57114;BME280;42994;51.606;9.988;2023-02-18T12:06:17;98795.13;;;8.11;100.00
57114;BME280;42994;51.606;9.988;2023-02-18T12:08:50;98821.19;;;8.09;100.00
57114;BME280;42994;51.606;9.988;2023-02-18T12:11:25;98799.84;;;8.09;100.00
57114;BME280;42994;51.606;9.988;2023-02-18T12:13:55;98823.22;;;8.07;100.00
57114;BME280;42994;51.606;9.988;2023-02-18T12:16:28;98811.22;;;8.03;100.00
57114;BME280;42994;51.606;9.988;2023-02-18T12:19:06;98809.91;;;7.99;100.00
57114;BME280;42994;51.606;9.988;2023-02-18T12:21:41;98816.63;;;7.95;100.00
57114;BME280;42994;51.606;9.988;2023-02-18T12:24:24;98822.78;;;7.95;100.00
57114;BME280;42994;51.606;9.988;2023-02-18T12:26:57;98811.00;;;7.89;100.00
57114;BME280;42994;51.606;9.988;2023-02-18T12:29:49;98799.50;;;7.89;100.00
57114;BME280;42994;51.606;9.988;2023-02-18T12:32:31;98810.34;;;7.87;100.00
57114;BME280;42994;51.606;9.988;2023-02-18T12:35:17;98801.53;;;7.87;100.00
57114;BME280;42994;51.606;9.988;2023-02-18T12:38:11;98809.41;;;7.80;100.00
57114;BME280;42994;51.606;9.988;2023-02-18T12:40:56;98822.09;;;7.78;100.00
57114;BME280;42994;51.606;9.988;2023-02-18T12:43:36;98823.09;;;7.77;100.00
57114;BME280;42994;51.606;9.988;2023-02-18T12:46:18;98817.75;;;7.77;100.00
57114;BME280;42994;51.606;9.988;2023-02-18T12:52:11;98826.97;;;7.75;100.00
57114;BME280;42994;51.606;9.988;2023-02-18T12:54:58;98808.47;;;7.73;100.00
57114;BME280;42994;51.606;9.988;2023-02-18T12:57:38;98802.13;;;7.74;100.00
57114;BME280;42994;51.606;9.988;2023-02-18T13:03:27;98796.25;;;7.79;100.00
57114;BME280;42994;51.606;9.988;2023-02-18T13:06:03;98790.09;;;7.78;100.00
57114;BME280;42994;51.606;9.988;2023-02-18T13:08:41;98806.91;;;7.79;100.00
57114;BME280;42994;51.606;9.988;2023-02-18T13:11:23;98796.06;;;7.80;100.00
57114;BME280;42994;51.606;9.988;2023-02-18T13:13:59;98789.53;;;7.83;100.00
57114;BME280;42994;51.606;9.988;2023-02-18T13:16:30;98807.56;;;7.81;100.00
57114;BME280;42994;51.606;9.988;2023-02-18T13:19:02;98812.91;;;7.81;100.00
57114;BME280;42994;51.606;9.988;2023-02-18T13:21:35;98803.91;;;7.82;100.00
57114;BME280;42994;51.606;9.988;2023-02-18T13:24:08;98812.91;;;7.81;100.00
57114;BME280;42994;51.606;9.988;2023-02-18T13:26:36;98812.38;;;7.85;100.00
57114;BME280;42994;51.606;9.988;2023-02-18T13:29:18;98813.75;;;7.81;100.00
57114;BME280;42994;51.606;9.988;2023-02-18T13:31:57;98826.06;;;7.82;100.00
57114;BME280;42994;51.606;9.988;2023-02-18T13:34:31;98823.56;;;7.81;100.00